Aaron Joseph — WCV9877 — position and weather

sailwx.info

Track history (hours):
 
Tides and Currents Weather Stations Pressure Air Temp Water Temp Dewpoint Dewpoint Depression Visibility Wind Speed Wind Dir Waves Ship Positions

Aaron Joseph

Owner: AARON JOSEPH INC, GOLDEN MEADOW, LA. More information available from US FCC via Universal Licensing System and Coast Guard Vessel Documentation Center.

Last reported at 2016-May-29 02:22 UTC. Time now 2016-May-29 07:42 UTC.
Position N 29°24' W 090°44'.

; draft 2.5 m.

Type: Tug. MMSI: 367028680.

Date/timePositionNaut miles runAvg speedWind from/ knotsBaromVisibWave heightAir tempDewpointWater temp
2016-May-29 02:22N 29°24' W 090°44'6 6.9
2016-May-29 01:33N 29°30' W 090°43'6 5.9
2016-May-29 00:33N 29°36' W 090°43'10 5.0
2016-May-28 22:33N 29°34' W 090°31'23 5.4
2016-May-28 18:22N 29°44' W 090°08'5 4.2
2016-May-28 17:17N 29°47' W 090°04'3 3.0
2016-May-28 16:18N 29°50' W 090°03'3 0.2
2016-May-28 03:05N 29°47' W 090°04'3 6.0
2016-May-28 02:33N 29°46' W 090°07'26 6.6
2016-May-27 22:33N 29°34' W 090°34'2 1.3
2016-May-27 21:20N 29°35' W 090°36'0 0.0
2016-May-27 20:32N 29°35' W 090°36'0 0.0
2016-May-27 19:32N 29°35' W 090°36'0 0.0
2016-May-27 18:32N 29°35' W 090°36'0 0.0
2016-May-27 17:32N 29°35' W 090°36'0 0.0
2016-May-27 16:32N 29°35' W 090°36'0 0.0
2016-May-27 15:20N 29°35' W 090°36'0 0.0
2016-May-27 14:32N 29°35' W 090°36'0 0.0
2016-May-27 13:32N 29°35' W 090°36'0 0.0
2016-May-27 12:32N 29°35' W 090°36'0 0.0
2016-May-27 11:32N 29°35' W 090°36'0 0.0
2016-May-27 10:32N 29°35' W 090°36'0 0.0
2016-May-27 09:32N 29°35' W 090°36'0 0.0
2016-May-27 08:32N 29°35' W 090°36'0 0.0
2016-May-27 07:32N 29°35' W 090°36'0 0.0
2016-May-27 06:32N 29°35' W 090°36'0 0.0
2016-May-27 05:32N 29°35' W 090°36'0 0.0
2016-May-27 04:32N 29°35' W 090°36'0 0.0
2016-May-27 03:26N 29°35' W 090°36'0 0.0
2016-May-27 02:32N 29°35' W 090°36'0 0.0
2016-May-27 01:32N 29°35' W 090°36'0 0.0
2016-May-27 00:26N 29°35' W 090°36'0 0.0
2016-May-26 23:32N 29°35' W 090°36'0 0.0
2016-May-26 22:26N 29°35' W 090°36'0 0.0
2016-May-26 21:32N 29°35' W 090°36'0 0.0
2016-May-26 20:32N 29°35' W 090°36'0 0.0
2016-May-26 19:32N 29°35' W 090°36'0 0.0
2016-May-26 18:32N 29°35' W 090°36'0 0.0
2016-May-26 17:32N 29°35' W 090°36'0 0.0
2016-May-26 16:32N 29°35' W 090°36'0 0.0
2016-May-26 15:32N 29°35' W 090°36'0 0.0
2016-May-26 14:32N 29°35' W 090°36'0 0.0
2016-May-26 13:32N 29°35' W 090°36'0 0.0
2016-May-26 12:32N 29°35' W 090°36'0 0.0
2016-May-26 11:26N 29°35' W 090°36'0 0.0
2016-May-26 10:32N 29°35' W 090°36'0 0.0
2016-May-26 09:32N 29°35' W 090°36'0 0.0
2016-May-26 08:32N 29°35' W 090°36'0 0.0
2016-May-26 07:32N 29°35' W 090°36'0 0.0
2016-May-26 06:32N 29°35' W 090°36'0 0.0
2016-May-26 05:32N 29°35' W 090°36'0 0.0
2016-May-26 04:26N 29°35' W 090°36'0 0.0
2016-May-26 03:32N 29°35' W 090°36'0 0.0
2016-May-26 02:32N 29°35' W 090°36'0 0.0
2016-May-26 01:32N 29°35' W 090°36'0 0.0
2016-May-26 00:26N 29°35' W 090°36'0 0.0
2016-May-25 23:32N 29°35' W 090°36'0 0.0
2016-May-25 22:32N 29°35' W 090°36'2 2.5
2016-May-25 21:33N 29°35' W 090°39'2 1.5
2016-May-25 20:30N 29°36' W 090°40'0 0.2
2016-May-25 19:33N 29°36' W 090°40'3 2.6
2016-May-25 18:33N 29°35' W 090°43'3 3.1
2016-May-25 17:33N 29°32' W 090°42'2 1.5
2016-May-25 16:33N 29°33' W 090°42'0 0.1
2016-May-25 15:31N 29°33' W 090°42'3 3.6
2016-May-25 14:33N 29°37' W 090°42'5 4.9
2016-May-25 13:27N 29°35' W 090°36'0 0.0
2016-May-25 12:28N 29°35' W 090°36'0 0.0
2016-May-25 10:04N 29°35' W 090°36'0 0.0
2016-May-25 09:16N 29°35' W 090°36'0 0.0
2016-May-25 08:10N 29°35' W 090°36'0 0.0
2016-May-25 07:28N 29°35' W 090°36'0 0.0
2016-May-25 06:16N 29°35' W 090°36'0 0.0
2016-May-25 05:22N 29°35' W 090°36'0 0.0
2016-May-25 04:10N 29°35' W 090°36'0 0.0
2016-May-25 03:22N 29°35' W 090°36'0 0.0
2016-May-25 02:22N 29°35' W 090°36'0 0.0
2016-May-25 01:22N 29°35' W 090°36'0 0.0
2016-May-25 00:22N 29°35' W 090°36'0 0.0
2016-May-24 23:16N 29°35' W 090°36'0 0.0
2016-May-24 22:28N 29°35' W 090°36'0 0.0
2016-May-24 21:16N 29°35' W 090°36'0 0.0
2016-May-24 20:28N 29°35' W 090°36'0 0.0
2016-May-24 19:16N 29°35' W 090°36'0 0.0
2016-May-24 18:28N 29°35' W 090°36'0 0.0
2016-May-24 17:28N 29°35' W 090°36'0 0.0
2016-May-24 16:28N 29°35' W 090°36'1 0.7
2016-May-24 15:33N 29°35' W 090°36'4 3.9
2016-May-24 14:33N 29°36' W 090°40'0 0.0
2016-May-24 13:33N 29°36' W 090°40'0 0.0
2016-May-24 12:33N 29°36' W 090°40'0 0.0
2016-May-24 11:33N 29°36' W 090°40'0 0.0
2016-May-24 10:33N 29°36' W 090°40'0 0.0
2016-May-24 09:33N 29°36' W 090°40'0 0.0
2016-May-24 08:33N 29°36' W 090°40'0 0.0
2016-May-24 07:33N 29°36' W 090°40'0 0.0
2016-May-24 06:33N 29°36' W 090°40'0 0.0
2016-May-24 05:33N 29°36' W 090°40'0 0.0
2016-May-24 04:33N 29°36' W 090°40'0 0.0
2016-May-24 03:33N 29°36' W 090°40'0 0.0
2016-May-24 02:27N 29°36' W 090°40'0 0.0
2016-May-24 01:33N 29°36' W 090°40'0 0.0
2016-May-24 00:33N 29°36' W 090°40'0 0.0
2016-May-23 23:33N 29°36' W 090°40'0 0.0
2016-May-23 22:33N 29°36' W 090°40'0 0.2
2016-May-23 21:32N 29°36' W 090°40'0 0.4
2016-May-23 20:26N 29°36' W 090°40'3 3.9
2016-May-23 19:33N 29°35' W 090°36'1 0.5
2016-May-23 18:22N 29°35' W 090°36'0 0.0
2016-May-23 17:28N 29°35' W 090°36'0 0.0
2016-May-23 16:28N 29°35' W 090°36'0 0.0
2016-May-23 15:28N 29°35' W 090°36'0 0.0
2016-May-23 14:28N 29°35' W 090°36'0 0.0
2016-May-23 13:16N 29°35' W 090°36'0 0.0
2016-May-23 12:28N 29°35' W 090°36'0 0.0
2016-May-23 11:28N 29°35' W 090°36'0 0.0
2016-May-23 10:28N 29°35' W 090°36'0 0.0
2016-May-23 09:28N 29°35' W 090°36'0 0.0
2016-May-23 08:28N 29°35' W 090°36'0 0.0
2016-May-23 07:28N 29°35' W 090°36'0 0.0
2016-May-23 06:28N 29°35' W 090°36'0 0.0
2016-May-23 05:28N 29°35' W 090°36'0 0.0
2016-May-23 04:28N 29°35' W 090°36'0 0.0
2016-May-23 03:28N 29°35' W 090°36'0 0.0
2016-May-23 02:28N 29°35' W 090°36'0 0.0
2016-May-23 01:28N 29°35' W 090°36'0 0.0
2016-May-23 00:28N 29°35' W 090°36'0 0.0
2016-May-22 23:28N 29°35' W 090°36'0 0.0
2016-May-22 22:28N 29°35' W 090°36'0 0.0
2016-May-22 21:28N 29°35' W 090°36'0 0.0
2016-May-22 20:28N 29°35' W 090°36'0 0.0
2016-May-22 19:28N 29°35' W 090°36'0 0.0
2016-May-22 18:28N 29°35' W 090°36'0 0.0
2016-May-22 17:28N 29°35' W 090°36'0 0.0
2016-May-22 16:28N 29°35' W 090°36'0 0.0
2016-May-22 15:28N 29°35' W 090°36'0 0.0
2016-May-22 14:28N 29°35' W 090°36'0 0.0
2016-May-22 13:28N 29°35' W 090°36'0 0.0
2016-May-22 12:28N 29°35' W 090°36'0 0.0
2016-May-22 11:28N 29°35' W 090°36'0 0.0
2016-May-22 10:22N 29°35' W 090°36'0 0.0
2016-May-22 09:28N 29°35' W 090°36'0 0.0
2016-May-22 08:28N 29°35' W 090°36'0 0.0
2016-May-22 07:28N 29°35' W 090°36'0 0.0
2016-May-22 06:28N 29°35' W 090°36'0 0.0
2016-May-22 05:28N 29°35' W 090°36'0 0.0
2016-May-22 04:28N 29°35' W 090°36'0 0.0
2016-May-22 03:28N 29°35' W 090°36'0 0.0
2016-May-22 02:28N 29°35' W 090°36'0 0.0
2016-May-22 01:22N 29°35' W 090°36'0 0.0
2016-May-22 00:28N 29°35' W 090°36'0 0.0
2016-May-21 23:28N 29°35' W 090°36'0 0.0
2016-May-21 22:28N 29°35' W 090°36'0 0.0
2016-May-21 21:28N 29°35' W 090°36'0 0.0
2016-May-21 20:28N 29°35' W 090°36'0 0.0
2016-May-21 19:28N 29°35' W 090°36'0 0.0
2016-May-21 18:28N 29°35' W 090°36'0 0.0
2016-May-21 17:22N 29°35' W 090°36'0 0.0
2016-May-21 16:28N 29°35' W 090°36'0 0.0
2016-May-21 15:28N 29°35' W 090°36'0 0.0
2016-May-21 14:28N 29°35' W 090°36'0 0.0
2016-May-21 13:28N 29°35' W 090°36'0 0.0
2016-May-21 12:28N 29°35' W 090°36'0 0.0
2016-May-21 11:28N 29°35' W 090°36'0 0.0
2016-May-21 10:28N 29°35' W 090°36'0 0.0
2016-May-21 09:28N 29°35' W 090°36'0 0.0
2016-May-21 08:28N 29°35' W 090°36'0 0.0
2016-May-21 07:28N 29°35' W 090°36'0 0.0
2016-May-21 06:28N 29°35' W 090°36'0 0.0
2016-May-21 05:28N 29°35' W 090°36'0 0.0
2016-May-21 04:28N 29°35' W 090°36'0 0.0
2016-May-21 03:28N 29°35' W 090°36'0 0.0
2016-May-21 02:28N 29°35' W 090°36'0 0.0
2016-May-21 01:28N 29°35' W 090°36'0 0.0
2016-May-21 00:28N 29°35' W 090°36'0 0.0
2016-May-20 23:28N 29°35' W 090°36'0 0.0
2016-May-20 22:28N 29°35' W 090°36'0 0.0
2016-May-20 21:28N 29°35' W 090°36'0 0.0
2016-May-20 20:28N 29°35' W 090°36'0 0.0
2016-May-20 19:28N 29°35' W 090°36'0 0.0
2016-May-20 18:28N 29°35' W 090°36'0 0.0
2016-May-20 17:28N 29°35' W 090°36'0 0.0
2016-May-20 16:28N 29°35' W 090°36'0 0.0
2016-May-20 15:28N 29°35' W 090°36'2 1.9
2016-May-20 14:33N 29°35' W 090°38'5 4.5
2016-May-20 13:33N 29°34' W 090°43'2 1.5
2016-May-20 12:32N 29°33' W 090°42'0 0.2
2016-May-20 11:31N 29°33' W 090°42'0 0.0
2016-May-20 10:31N 29°33' W 090°42'0 0.0
2016-May-20 09:31N 29°33' W 090°42'0 0.0
2016-May-20 08:31N 29°33' W 090°42'4 4.3
2016-May-20 07:33N 29°37' W 090°42'6 6.1
2016-May-20 06:33N 29°35' W 090°36'7 6.5
2016-May-20 05:33N 29°33' W 090°28'26 5.2
2016-May-20 00:34N 29°49' W 090°04'7 6.9
2016-May-19 23:33N 29°54' W 089°59'1 1.1
2016-May-19 22:20N 29°55' W 089°58'1 1.0
2016-May-19 21:33N 29°55' W 089°57'0 0.1
2016-May-19 20:33N 29°55' W 089°57'0 0.1
2016-May-19 19:27N 29°55' W 089°57'0 0.2
2016-May-19 18:33N 29°55' W 089°57'3 3.1
2016-May-19 17:25N 29°52' W 089°55'3 3.9
2016-May-19 16:33N 29°51' W 089°59'5 4.8
2016-May-19 15:33N 29°46' W 090°01'  
Track history (hours):
 
Tides and Currents Weather Stations Pressure Air Temp Water Temp Dewpoint Dewpoint Depression Visibility Wind Speed Wind Dir Waves Ship Positions

Aaron Joseph

Owner: AARON JOSEPH INC, GOLDEN MEADOW, LA. More information available from US FCC via Universal Licensing System and Coast Guard Vessel Documentation Center.

Last reported at 2016-May-29 02:22 UTC. Time now 2016-May-29 07:42 UTC.
Position N 29°24' W 090°44'.

; draft 2.5 m.

Type: Tug. MMSI: 367028680.

Date/timePositionNaut miles runAvg speedWind from/ knotsBaromVisibWave heightAir tempDewpointWater temp
2016-May-29 02:22N 29°24' W 090°44'6 6.9
2016-May-29 01:33N 29°30' W 090°43'6 5.9
2016-May-29 00:33N 29°36' W 090°43'10 5.0
2016-May-28 22:33N 29°34' W 090°31'23 5.4
2016-May-28 18:22N 29°44' W 090°08'5 4.2
2016-May-28 17:17N 29°47' W 090°04'3 3.0
2016-May-28 16:18N 29°50' W 090°03'3 0.2
2016-May-28 03:05N 29°47' W 090°04'3 6.0
2016-May-28 02:33N 29°46' W 090°07'26 6.6
2016-May-27 22:33N 29°34' W 090°34'2 1.3
2016-May-27 21:20N 29°35' W 090°36'0 0.0
2016-May-27 20:32N 29°35' W 090°36'0 0.0
2016-May-27 19:32N 29°35' W 090°36'0 0.0
2016-May-27 18:32N 29°35' W 090°36'0 0.0
2016-May-27 17:32N 29°35' W 090°36'0 0.0
2016-May-27 16:32N 29°35' W 090°36'0 0.0
2016-May-27 15:20N 29°35' W 090°36'0 0.0
2016-May-27 14:32N 29°35' W 090°36'0 0.0
2016-May-27 13:32N 29°35' W 090°36'0 0.0
2016-May-27 12:32N 29°35' W 090°36'0 0.0
2016-May-27 11:32N 29°35' W 090°36'0 0.0
2016-May-27 10:32N 29°35' W 090°36'0 0.0
2016-May-27 09:32N 29°35' W 090°36'0 0.0
2016-May-27 08:32N 29°35' W 090°36'0 0.0
2016-May-27 07:32N 29°35' W 090°36'0 0.0
2016-May-27 06:32N 29°35' W 090°36'0 0.0
2016-May-27 05:32N 29°35' W 090°36'0 0.0
2016-May-27 04:32N 29°35' W 090°36'0 0.0
2016-May-27 03:26N 29°35' W 090°36'0 0.0
2016-May-27 02:32N 29°35' W 090°36'0 0.0
2016-May-27 01:32N 29°35' W 090°36'0 0.0
2016-May-27 00:26N 29°35' W 090°36'0 0.0
2016-May-26 23:32N 29°35' W 090°36'0 0.0
2016-May-26 22:26N 29°35' W 090°36'0 0.0
2016-May-26 21:32N 29°35' W 090°36'0 0.0
2016-May-26 20:32N 29°35' W 090°36'0 0.0
2016-May-26 19:32N 29°35' W 090°36'0 0.0
2016-May-26 18:32N 29°35' W 090°36'0 0.0
2016-May-26 17:32N 29°35' W 090°36'0 0.0
2016-May-26 16:32N 29°35' W 090°36'0 0.0
2016-May-26 15:32N 29°35' W 090°36'0 0.0
2016-May-26 14:32N 29°35' W 090°36'0 0.0
2016-May-26 13:32N 29°35' W 090°36'0 0.0
2016-May-26 12:32N 29°35' W 090°36'0 0.0
2016-May-26 11:26N 29°35' W 090°36'0 0.0
2016-May-26 10:32N 29°35' W 090°36'0 0.0
2016-May-26 09:32N 29°35' W 090°36'0 0.0
2016-May-26 08:32N 29°35' W 090°36'0 0.0
2016-May-26 07:32N 29°35' W 090°36'0 0.0
2016-May-26 06:32N 29°35' W 090°36'0 0.0
2016-May-26 05:32N 29°35' W 090°36'0 0.0
2016-May-26 04:26N 29°35' W 090°36'0 0.0
2016-May-26 03:32N 29°35' W 090°36'0 0.0
2016-May-26 02:32N 29°35' W 090°36'0 0.0
2016-May-26 01:32N 29°35' W 090°36'0 0.0
2016-May-26 00:26N 29°35' W 090°36'0 0.0
2016-May-25 23:32N 29°35' W 090°36'0 0.0
2016-May-25 22:32N 29°35' W 090°36'2 2.5
2016-May-25 21:33N 29°35' W 090°39'2 1.5
2016-May-25 20:30N 29°36' W 090°40'0 0.2
2016-May-25 19:33N 29°36' W 090°40'3 2.6
2016-May-25 18:33N 29°35' W 090°43'3 3.1
2016-May-25 17:33N 29°32' W 090°42'2 1.5
2016-May-25 16:33N 29°33' W 090°42'0 0.1
2016-May-25 15:31N 29°33' W 090°42'3 3.6
2016-May-25 14:33N 29°37' W 090°42'5 4.9
2016-May-25 13:27N 29°35' W 090°36'0 0.0
2016-May-25 12:28N 29°35' W 090°36'0 0.0
2016-May-25 10:04N 29°35' W 090°36'0 0.0
2016-May-25 09:16N 29°35' W 090°36'0 0.0
2016-May-25 08:10N 29°35' W 090°36'0 0.0
2016-May-25 07:28N 29°35' W 090°36'0 0.0
2016-May-25 06:16N 29°35' W 090°36'0 0.0
2016-May-25 05:22N 29°35' W 090°36'0 0.0
2016-May-25 04:10N 29°35' W 090°36'0 0.0
2016-May-25 03:22N 29°35' W 090°36'0 0.0
2016-May-25 02:22N 29°35' W 090°36'0 0.0
2016-May-25 01:22N 29°35' W 090°36'0 0.0
2016-May-25 00:22N 29°35' W 090°36'0 0.0
2016-May-24 23:16N 29°35' W 090°36'0 0.0
2016-May-24 22:28N 29°35' W 090°36'0 0.0
2016-May-24 21:16N 29°35' W 090°36'0 0.0
2016-May-24 20:28N 29°35' W 090°36'0 0.0
2016-May-24 19:16N 29°35' W 090°36'0 0.0
2016-May-24 18:28N 29°35' W 090°36'0 0.0
2016-May-24 17:28N 29°35' W 090°36'0 0.0
2016-May-24 16:28N 29°35' W 090°36'1 0.7
2016-May-24 15:33N 29°35' W 090°36'4 3.9
2016-May-24 14:33N 29°36' W 090°40'0 0.0
2016-May-24 13:33N 29°36' W 090°40'0 0.0
2016-May-24 12:33N 29°36' W 090°40'0 0.0
2016-May-24 11:33N 29°36' W 090°40'0 0.0
2016-May-24 10:33N 29°36' W 090°40'0 0.0
2016-May-24 09:33N 29°36' W 090°40'0 0.0
2016-May-24 08:33N 29°36' W 090°40'0 0.0
2016-May-24 07:33N 29°36' W 090°40'0 0.0
2016-May-24 06:33N 29°36' W 090°40'0 0.0
2016-May-24 05:33N 29°36' W 090°40'0 0.0
2016-May-24 04:33N 29°36' W 090°40'0 0.0
2016-May-24 03:33N 29°36' W 090°40'0 0.0
2016-May-24 02:27N 29°36' W 090°40'0 0.0
2016-May-24 01:33N 29°36' W 090°40'0 0.0
2016-May-24 00:33N 29°36' W 090°40'0 0.0
2016-May-23 23:33N 29°36' W 090°40'0 0.0
2016-May-23 22:33N 29°36' W 090°40'0 0.2
2016-May-23 21:32N 29°36' W 090°40'0 0.4
2016-May-23 20:26N 29°36' W 090°40'3 3.9
2016-May-23 19:33N 29°35' W 090°36'1 0.5
2016-May-23 18:22N 29°35' W 090°36'0 0.0
2016-May-23 17:28N 29°35' W 090°36'0 0.0
2016-May-23 16:28N 29°35' W 090°36'0 0.0
2016-May-23 15:28N 29°35' W 090°36'0 0.0
2016-May-23 14:28N 29°35' W 090°36'0 0.0
2016-May-23 13:16N 29°35' W 090°36'0 0.0
2016-May-23 12:28N 29°35' W 090°36'0 0.0
2016-May-23 11:28N 29°35' W 090°36'0 0.0
2016-May-23 10:28N 29°35' W 090°36'0 0.0
2016-May-23 09:28N 29°35' W 090°36'0 0.0
2016-May-23 08:28N 29°35' W 090°36'0 0.0
2016-May-23 07:28N 29°35' W 090°36'0 0.0
2016-May-23 06:28N 29°35' W 090°36'0 0.0
2016-May-23 05:28N 29°35' W 090°36'0 0.0
2016-May-23 04:28N 29°35' W 090°36'0 0.0
2016-May-23 03:28N 29°35' W 090°36'0 0.0
2016-May-23 02:28N 29°35' W 090°36'0 0.0
2016-May-23 01:28N 29°35' W 090°36'0 0.0
2016-May-23 00:28N 29°35' W 090°36'0 0.0
2016-May-22 23:28N 29°35' W 090°36'0 0.0
2016-May-22 22:28N 29°35' W 090°36'0 0.0
2016-May-22 21:28N 29°35' W 090°36'0 0.0
2016-May-22 20:28N 29°35' W 090°36'0 0.0
2016-May-22 19:28N 29°35' W 090°36'0 0.0
2016-May-22 18:28N 29°35' W 090°36'0 0.0
2016-May-22 17:28N 29°35' W 090°36'0 0.0
2016-May-22 16:28N 29°35' W 090°36'0 0.0
2016-May-22 15:28N 29°35' W 090°36'0 0.0
2016-May-22 14:28N 29°35' W 090°36'0 0.0
2016-May-22 13:28N 29°35' W 090°36'0 0.0
2016-May-22 12:28N 29°35' W 090°36'0 0.0
2016-May-22 11:28N 29°35' W 090°36'0 0.0
2016-May-22 10:22N 29°35' W 090°36'0 0.0
2016-May-22 09:28N 29°35' W 090°36'0 0.0
2016-May-22 08:28N 29°35' W 090°36'0 0.0
2016-May-22 07:28N 29°35' W 090°36'0 0.0
2016-May-22 06:28N 29°35' W 090°36'0 0.0
2016-May-22 05:28N 29°35' W 090°36'0 0.0
2016-May-22 04:28N 29°35' W 090°36'0 0.0
2016-May-22 03:28N 29°35' W 090°36'0 0.0
2016-May-22 02:28N 29°35' W 090°36'0 0.0
2016-May-22 01:22N 29°35' W 090°36'0 0.0
2016-May-22 00:28N 29°35' W 090°36'0 0.0
2016-May-21 23:28N 29°35' W 090°36'0 0.0
2016-May-21 22:28N 29°35' W 090°36'0 0.0
2016-May-21 21:28N 29°35' W 090°36'0 0.0
2016-May-21 20:28N 29°35' W 090°36'0 0.0
2016-May-21 19:28N 29°35' W 090°36'0 0.0
2016-May-21 18:28N 29°35' W 090°36'0 0.0
2016-May-21 17:22N 29°35' W 090°36'0 0.0
2016-May-21 16:28N 29°35' W 090°36'0 0.0
2016-May-21 15:28N 29°35' W 090°36'0 0.0
2016-May-21 14:28N 29°35' W 090°36'0 0.0
2016-May-21 13:28N 29°35' W 090°36'0 0.0
2016-May-21 12:28N 29°35' W 090°36'0 0.0
2016-May-21 11:28N 29°35' W 090°36'0 0.0
2016-May-21 10:28N 29°35' W 090°36'0 0.0
2016-May-21 09:28N 29°35' W 090°36'0 0.0
2016-May-21 08:28N 29°35' W 090°36'0 0.0
2016-May-21 07:28N 29°35' W 090°36'0 0.0
2016-May-21 06:28N 29°35' W 090°36'0 0.0
2016-May-21 05:28N 29°35' W 090°36'0 0.0
2016-May-21 04:28N 29°35' W 090°36'0 0.0
2016-May-21 03:28N 29°35' W 090°36'0 0.0
2016-May-21 02:28N 29°35' W 090°36'0 0.0
2016-May-21 01:28N 29°35' W 090°36'0 0.0
2016-May-21 00:28N 29°35' W 090°36'0 0.0
2016-May-20 23:28N 29°35' W 090°36'0 0.0
2016-May-20 22:28N 29°35' W 090°36'0 0.0
2016-May-20 21:28N 29°35' W 090°36'0 0.0
2016-May-20 20:28N 29°35' W 090°36'0 0.0
2016-May-20 19:28N 29°35' W 090°36'0 0.0
2016-May-20 18:28N 29°35' W 090°36'0 0.0
2016-May-20 17:28N 29°35' W 090°36'0 0.0
2016-May-20 16:28N 29°35' W 090°36'0 0.0
2016-May-20 15:28N 29°35' W 090°36'2 1.9
2016-May-20 14:33N 29°35' W 090°38'5 4.5
2016-May-20 13:33N 29°34' W 090°43'2 1.5
2016-May-20 12:32N 29°33' W 090°42'0 0.2
2016-May-20 11:31N 29°33' W 090°42'0 0.0
2016-May-20 10:31N 29°33' W 090°42'0 0.0
2016-May-20 09:31N 29°33' W 090°42'0 0.0
2016-May-20 08:31N 29°33' W 090°42'4 4.3
2016-May-20 07:33N 29°37' W 090°42'6 6.1
2016-May-20 06:33N 29°35' W 090°36'7 6.5
2016-May-20 05:33N 29°33' W 090°28'26 5.2
2016-May-20 00:34N 29°49' W 090°04'7 6.9
2016-May-19 23:33N 29°54' W 089°59'1 1.1
2016-May-19 22:20N 29°55' W 089°58'1 1.0
2016-May-19 21:33N 29°55' W 089°57'0 0.1
2016-May-19 20:33N 29°55' W 089°57'0 0.1
2016-May-19 19:27N 29°55' W 089°57'0 0.2
2016-May-19 18:33N 29°55' W 089°57'3 3.1
2016-May-19 17:25N 29°52' W 089°55'3 3.9
2016-May-19 16:33N 29°51' W 089°59'5 4.8
2016-May-19 15:33N 29°46' W 090°01'  

Dump ship's entire track history